Time;durP1;ratioP1;P1;durP2;ratioP2;P2;SDS_P1;SDS_P2;PMS_P1;PMS_P2;Temp;Humidity;BMP_temperature;BMP_pressure;BME280_temperature;BME280_humidity;BME280_pressure;Samples;Min_cycle;Max_cycle;Signal;HPM_P1;HPM_P2
2023/10/10 00:01:41;;;;;;;8.88;3.83;;;;;;;22.39;100.00;101660.81;4929129;29;20059;-48
2023/10/10 00:04:07;;;;;;;10.65;3.78;;;;;;;22.57;100.00;101674.09;4929024;29;20111;-49
2023/10/10 00:06:38;;;;;;;11.05;3.83;;;;;;;22.50;100.00;101672.41;4929530;29;20047;-48
2023/10/10 00:09:09;;;;;;;9.93;3.83;;;;;;;22.43;100.00;101667.06;4925916;29;20058;-49
2023/10/10 00:11:41;;;;;;;7.28;3.35;;;;;;;22.46;100.00;101665.31;4927972;29;20079;-48
2023/10/10 00:14:18;;;;;;;6.65;3.38;;;;;;;22.46;100.00;101666.13;4923128;29;20107;-48
2023/10/10 00:16:54;;;;;;;9.00;3.42;;;;;;;22.46;100.00;101668.16;4923448;29;20048;-48
2023/10/10 00:19:30;;;;;;;8.50;3.55;;;;;;;22.41;100.00;101666.75;4927953;29;20147;-48
2023/10/10 00:21:57;;;;;;;10.50;3.90;;;;;;;22.45;100.00;101656.06;4926181;29;20058;-48
2023/10/10 00:24:33;;;;;;;8.00;3.55;;;;;;;22.42;100.00;101657.00;4930076;29;20590;-48
2023/10/10 00:27:35;;;;;;;7.05;3.05;;;;;;;22.45;100.00;101660.94;4928594;29;20056;-48
2023/10/10 00:29:53;;;;;;;8.90;3.67;;;;;;;22.50;100.00;101654.59;4924209;29;20079;-47
2023/10/10 00:32:24;;;;;;;9.77;3.30;;;;;;;22.43;100.00;101660.63;4928413;29;20404;-48
2023/10/10 00:34:51;;;;;;;8.32;3.28;;;;;;;22.47;100.00;101655.59;4930649;29;20142;-47
2023/10/10 00:37:29;;;;;;;8.85;3.40;;;;;;;22.48;100.00;101655.09;4929231;29;20142;-49
2023/10/10 00:39:59;;;;;;;8.60;3.47;;;;;;;22.45;100.00;101653.22;4929970;29;20438;-49
2023/10/10 00:42:41;;;;;;;8.85;3.88;;;;;;;22.49;100.00;101650.22;4927440;29;20063;-48
2023/10/10 00:45:10;;;;;;;9.80;3.60;;;;;;;22.46;100.00;101657.63;4908595;29;20683;-49
2023/10/10 00:47:41;;;;;;;7.35;3.30;;;;;;;22.44;100.00;101651.63;4927227;29;20062;-48
2023/10/10 00:50:14;;;;;;;11.15;3.20;;;;;;;22.42;100.00;101650.56;4931822;29;20066;-48
2023/10/10 00:52:53;;;;;;;9.07;3.58;;;;;;;22.45;100.00;101655.28;4932667;29;20059;-50
2023/10/10 00:55:24;;;;;;;8.13;3.50;;;;;;;22.44;100.00;101651.63;4932245;29;20118;-47
2023/10/10 00:57:55;;;;;;;8.32;3.10;;;;;;;22.44;100.00;101662.22;4932573;29;20103;-50
2023/10/10 01:00:25;;;;;;;9.00;3.20;;;;;;;22.44;100.00;101651.63;4930958;29;20182;-49
2023/10/10 01:03:01;;;;;;;9.77;3.78;;;;;;;22.42;100.00;101661.88;4929342;29;20780;-51
2023/10/10 01:05:40;;;;;;;8.10;3.50;;;;;;;22.41;100.00;101649.00;4933185;29;20047;-51
2023/10/10 01:08:10;;;;;;;8.15;3.40;;;;;;;22.42;100.00;101650.56;4928341;29;20056;-49
2023/10/10 01:10:43;;;;;;;5.85;2.88;;;;;;;22.43;100.00;101647.25;4933638;29;20150;-49
2023/10/10 01:13:10;;;;;;;8.45;3.50;;;;;;;22.48;100.00;101642.97;4933804;29;20549;-49
2023/10/10 01:15:37;;;;;;;8.40;3.55;;;;;;;22.47;100.00;101638.59;4932551;29;20068;-49
2023/10/10 01:18:13;;;;;;;6.88;3.40;;;;;;;22.40;100.00;101636.06;4933351;29;20506;-48
2023/10/10 01:20:49;;;;;;;6.65;2.80;;;;;;;22.43;100.00;101637.94;4932627;29;20131;-49
2023/10/10 01:23:18;;;;;;;8.82;3.35;;;;;;;22.47;100.00;101647.09;4933917;29;20048;-47
2023/10/10 01:25:46;;;;;;;11.38;3.42;;;;;;;22.44;100.00;101648.03;4933390;29;20063;-48
2023/10/10 01:28:23;;;;;;;7.78;3.40;;;;;;;22.47;100.00;101636.53;4933769;29;20139;-49
2023/10/10 01:33:49;;;;;;;9.10;3.67;;;;;;;22.49;100.00;101644.53;4921303;29;21059;-49
2023/10/10 01:36:19;;;;;;;8.25;3.00;;;;;;;22.47;100.00;101641.41;4931090;29;20044;-49
2023/10/10 01:39:07;;;;;;;7.07;3.35;;;;;;;22.46;100.00;101639.84;4930290;29;20085;-48
2023/10/10 01:41:46;;;;;;;6.43;2.95;;;;;;;22.45;100.00;101638.28;4930717;29;20056;-50
2023/10/10 01:44:12;;;;;;;7.05;3.13;;;;;;;22.45;100.00;101633.41;4931655;29;20052;-49
2023/10/10 01:46:40;;;;;;;7.75;3.38;;;;;;;22.47;100.00;101624.41;4932339;29;20047;-47
2023/10/10 01:49:14;;;;;;;7.25;3.13;;;;;;;22.47;100.00;101625.19;4930786;29;20064;-48
2023/10/10 01:51:42;;;;;;;8.13;3.47;;;;;;;22.46;100.00;101620.78;4927399;29;20718;-49
2023/10/10 01:54:18;;;;;;;7.32;3.13;;;;;;;22.45;100.00;101618.44;4931108;29;20047;-48
2023/10/10 01:56:45;;;;;;;7.93;2.88;;;;;;;22.47;100.00;101625.19;4928353;29;20113;-48
2023/10/10 01:59:25;;;;;;;10.55;3.20;;;;;;;22.48;100.00;101615.41;4927473;29;20051;-46
2023/10/10 02:01:55;;;;;;;8.48;3.13;;;;;;;22.46;100.00;101617.97;4928055;29;20102;-47
2023/10/10 02:04:22;;;;;;;6.57;3.17;;;;;;;22.40;100.00;101627.56;4929965;29;20147;-48
2023/10/10 02:06:55;;;;;;;7.47;3.17;;;;;;;22.51;100.00;101622.19;4928879;29;20051;-42
2023/10/10 02:11:54;;;;;;;7.82;3.03;;;;;;;22.48;100.00;101620.31;4932682;29;20431;-41
2023/10/10 02:14:30;;;;;;;6.80;3.25;;;;;;;22.54;100.00;101626.91;4933150;29;20323;-39
2023/10/10 02:17:06;;;;;;;7.82;3.25;;;;;;;22.47;100.00;101618.75;4932645;29;20138;-40
2023/10/10 02:19:39;;;;;;;9.93;3.40;;;;;;;22.46;100.00;101623.63;4932871;29;20055;-41
2023/10/10 02:22:22;;;;;;;8.02;3.03;;;;;;;22.46;100.00;101623.63;4932115;29;20474;-40
2023/10/10 02:24:51;;;;;;;6.18;2.80;;;;;;;22.46;100.00;101623.63;4931936;29;20514;-41
2023/10/10 02:27:28;;;;;;;7.90;3.28;;;;;;;22.43;100.00;101629.44;4931058;29;20138;-40
2023/10/10 02:29:54;;;;;;;10.98;3.08;;;;;;;22.45;100.00;101621.28;4932325;29;20083;-39
2023/10/10 02:32:21;;;;;;;8.38;2.97;;;;;;;22.40;100.00;101619.88;4931414;29;20087;-38
2023/10/10 02:35:26;;;;;;;7.53;3.15;;;;;;;22.42;100.00;101613.72;4932525;29;20056;-42
2023/10/10 02:37:45;;;;;;;8.52;3.20;;;;;;;22.43;100.00;101618.13;4931657;29;20051;-41
2023/10/10 02:40:15;;;;;;;8.95;3.10;;;;;;;22.43;100.00;101615.28;4930707;29;20055;-41
2023/10/10 02:43:09;;;;;;;6.60;3.00;;;;;;;22.40;100.00;101616.22;4932400;29;20095;-40
2023/10/10 02:45:36;;;;;;;8.80;3.50;;;;;;;22.42;100.00;101605.22;4931894;29;20055;-42
2023/10/10 02:48:07;;;;;;;8.75;3.00;;;;;;;22.41;100.00;101612.16;4932432;29;20052;-40
2023/10/10 02:50:40;;;;;;;7.40;3.22;;;;;;;22.39;100.00;101609.00;4931011;29;20118;-40
2023/10/10 02:53:08;;;;;;;5.97;3.00;;;;;;;22.40;100.00;101604.91;4930432;29;20060;-39
2023/10/10 02:55:41;;;;;;;7.40;3.05;;;;;;;22.39;100.00;101597.69;4931169;29;20127;-40
2023/10/10 02:58:20;;;;;;;7.70;3.13;;;;;;;22.39;100.00;101601.31;4924883;29;20842;-40
2023/10/10 03:00:52;;;;;;;6.22;2.85;;;;;;;22.40;100.00;101608.53;4931969;29;20091;-39
2023/10/10 03:03:18;;;;;;;7.90;3.08;;;;;;;22.37;100.00;101608.72;4931574;29;20063;-41
2023/10/10 03:05:54;;;;;;;8.45;2.90;;;;;;;22.40;100.00;101611.38;4930817;29;20055;-38
2023/10/10 03:10:59;;;;;;;5.57;2.70;;;;;;;22.40;100.00;101602.06;4931190;29;20051;-39
2023/10/10 03:13:28;;;;;;;7.07;2.88;;;;;;;22.40;100.00;101594.38;4930706;29;20094;-40
2023/10/10 03:15:56;;;;;;;11.07;3.10;;;;;;;22.38;100.00;101596.13;4931548;29;20055;-40
2023/10/10 03:18:30;;;;;;;11.88;3.67;;;;;;;22.37;100.00;101608.72;4931712;29;20499;-41
2023/10/10 03:23:41;;;;;;;6.97;3.05;;;;;;;22.38;100.00;101607.44;4931460;29;20147;-40
2023/10/10 03:26:18;;;;;;;6.78;3.03;;;;;;;22.35;100.00;101605.56;4929740;29;20138;-40
2023/10/10 03:28:47;;;;;;;6.70;2.90;;;;;;;22.36;100.00;101609.97;4929343;29;20135;-43
2023/10/10 03:33:44;;;;;;;6.20;3.10;;;;;;;22.31;100.00;101602.88;4927576;29;20478;-42
2023/10/10 05:25:37;;;;;;;6.13;2.63;;;;;;;22.25;100.00;101545.31;4933413;29;20418;-39
2023/10/10 05:28:04;;;;;;;5.70;2.88;;;;;;;22.24;100.00;101537.28;4933845;29;20070;-40
2023/10/10 05:30:48;;;;;;;6.50;3.00;;;;;;;22.26;100.00;101546.06;4933117;29;20061;-38
2023/10/10 05:33:19;;;;;;;7.20;2.73;;;;;;;22.27;100.00;101544.84;4931445;29;20048;-40
2023/10/10 05:35:49;;;;;;;7.32;2.97;;;;;;;22.25;100.00;101544.50;4929823;29;20349;-40
2023/10/10 05:38:16;;;;;;;4.90;2.78;;;;;;;22.24;100.00;101549.38;4931714;29;20070;-40
2023/10/10 05:40:43;;;;;;;5.03;2.83;;;;;;;22.25;100.00;101555.84;4933186;29;20059;-41
2023/10/10 05:43:15;;;;;;;7.63;3.17;;;;;;;22.23;100.00;101545.00;4932753;29;20052;-40
2023/10/10 05:45:45;;;;;;;5.93;2.60;;;;;;;22.23;100.00;101547.81;4933538;29;20059;-39
2023/10/10 05:48:12;;;;;;;6.55;2.97;;;;;;;22.22;100.00;101551.13;4931704;29;20054;-39
2023/10/10 05:50:42;;;;;;;4.53;2.30;;;;;;;22.24;100.00;101557.13;4932796;29;20053;-39
2023/10/10 05:53:09;;;;;;;6.95;2.67;;;;;;;22.24;100.00;101554.28;4925140;29;20059;-39
2023/10/10 05:55:37;;;;;;;6.50;2.63;;;;;;;22.23;100.00;101555.53;4933264;29;20052;-41
2023/10/10 05:58:05;;;;;;;3.92;2.17;;;;;;;22.24;100.00;101555.06;4932973;29;20052;-40
2023/10/10 06:00:44;;;;;;;5.57;2.42;;;;;;;22.21;100.00;101546.75;4932799;29;20607;-39
2023/10/10 06:03:12;;;;;;;4.70;2.42;;;;;;;22.20;100.00;101550.84;4923506;29;20048;-39
2023/10/10 06:05:45;;;;;;;5.40;3.03;;;;;;;22.22;100.00;101537.78;4932164;29;20066;-40
2023/10/10 06:08:15;;;;;;;2.90;2.00;;;;;;;22.31;100.00;101545.47;4928481;29;20103;-42
2023/10/10 06:10:43;;;;;;;6.50;2.60;;;;;;;22.24;100.00;101546.56;4931407;29;20462;-42
2023/10/10 06:13:11;;;;;;;6.40;2.75;;;;;;;22.28;100.00;101537.91;4929935;29;20459;-38
2023/10/10 06:15:38;;;;;;;25.70;2.90;;;;;;;22.26;100.00;101535.53;4929951;29;20062;-39
2023/10/10 06:18:08;;;;;;;5.50;2.83;;;;;;;22.25;100.00;101533.19;4932401;29;20054;-40
2023/10/10 06:20:40;;;;;;;8.77;2.80;;;;;;;22.23;100.00;101525.16;4931389;29;20087;-40
2023/10/10 06:23:27;;;;;;;5.15;2.63;;;;;;;22.23;100.00;101527.19;4930411;29;20437;-40
2023/10/10 06:25:58;;;;;;;8.80;2.65;;;;;;;22.21;100.00;101524.88;4929103;29;20135;-40
2023/10/10 06:28:34;;;;;;;6.63;2.10;;;;;;;22.23;100.00;101524.38;4930921;29;20102;-39
2023/10/10 06:31:03;;;;;;;8.30;2.70;;;;;;;22.23;100.00;101535.69;4914640;29;20055;-41
2023/10/10 06:33:29;;;;;;;7.93;2.58;;;;;;;22.25;100.00;101531.16;4927495;29;20047;-40
2023/10/10 06:39:53;;;;;;;5.38;2.70;;;;;;;22.29;100.00;101537.41;4928345;29;20063;-40
2023/10/10 06:41:39;;;;;;;5.68;2.42;;;;;;;22.27;100.00;101527.84;4921336;29;20107;-40
2023/10/10 06:44:13;;;;;;;4.45;2.30;;;;;;;22.25;100.00;101533.97;4931049;29;20086;-40
2023/10/10 06:46:48;;;;;;;3.88;2.38;;;;;;;22.27;100.00;101522.94;4930473;29;20164;-39
2023/10/10 06:49:15;;;;;;;6.47;2.83;;;;;;;22.25;100.00;101524.69;4930918;29;20040;-39
2023/10/10 06:51:42;;;;;;;11.07;3.10;;;;;;;22.25;100.00;101528.31;4930568;29;20867;-44
2023/10/10 06:54:28;;;;;;;4.43;2.40;;;;;;;22.33;100.00;101523.09;4930672;29;20054;-40
2023/10/10 06:59:28;;;;;;;6.20;2.30;;;;;;;22.25;100.00;101528.31;4929904;29;20047;-41
2023/10/10 07:02:13;;;;;;;9.15;3.10;;;;;;;22.26;100.00;101531.91;4931120;29;20091;-39
2023/10/10 07:04:40;;;;;;;9.13;2.92;;;;;;;22.24;100.00;101529.56;4930878;29;20134;-38
2023/10/10 07:07:08;;;;;;;23.80;11.55;;;;;;;22.15;100.00;101541.72;4921310;29;20051;-41
2023/10/10 07:09:37;;;;;;;28.73;12.13;;;;;;;22.14;100.00;101536.53;4932765;29;20060;-39
2023/10/10 07:12:09;;;;;;;22.30;9.27;;;;;;;22.15;100.00;101535.28;4929059;29;20103;-41
2023/10/10 07:14:55;;;;;;;17.63;6.82;;;;;;;22.15;100.00;101527.56;4927070;29;20110;-38
2023/10/10 07:17:27;;;;;;;;;;;;;;;22.24;100.00;101523.88;4925330;29;20067;-43
2023/10/10 07:22:34;;;;;;;15.07;5.97;;;;;;;22.27;100.00;101527.84;4915677;29;20090;-40
2023/10/10 07:28:05;;;;;;;14.48;4.57;;;;;;;22.29;100.00;101533.78;4878852;29;20080;-41
2023/10/10 07:30:34;;;;;;;16.33;5.65;;;;;;;22.27;100.00;101531.44;4918488;29;20067;-40
2023/10/10 07:33:03;;;;;;;14.70;4.78;;;;;;;22.24;100.00;101532.38;4928406;29;20051;-40
2023/10/10 07:35:36;;;;;;;14.23;5.57;;;;;;;22.28;100.00;101535.06;4930938;29;20111;-40
2023/10/10 07:38:03;;;;;;;14.20;4.72;;;;;;;22.29;100.00;101526.09;4929346;29;20498;-41
2023/10/10 07:40:37;;;;;;;17.50;5.18;;;;;;;22.29;100.00;101525.28;4928101;29;20126;-41
2023/10/10 07:43:04;;;;;;;13.65;5.32;;;;;;;22.25;100.00;101527.53;4929317;29;20529;-39
2023/10/10 07:45:33;;;;;;;13.20;4.60;;;;;;;22.26;100.00;101526.25;4926302;29;20047;-39
2023/10/10 07:50:55;;;;;;;10.70;4.15;;;;;;;22.26;100.00;101509.25;4930943;29;20048;-41
2023/10/10 07:53:33;;;;;;;13.20;4.38;;;;;;;22.24;100.00;101506.91;4925258;29;20056;-40
2023/10/10 07:56:03;;;;;;;12.23;4.28;;;;;;;22.26;100.00;101504.38;4930864;29;20502;-39
2023/10/10 08:01:19;;;;;;;13.75;4.80;;;;;;;22.25;100.00;101513.34;4927473;29;20048;-40
2023/10/10 08:03:46;;;;;;;20.33;9.10;;;;;;;22.22;100.00;101514.31;4931332;29;20058;-43
2023/10/10 08:06:25;;;;;;;23.10;11.13;;;;;;;22.22;100.00;101517.16;4932469;29;20078;-40
2023/10/10 08:09:18;;;;;;;23.65;13.10;;;;;;;22.11;100.00;101521.28;4934092;29;20415;-40
2023/10/10 08:11:45;;;;;;;25.45;13.18;;;;;;;22.09;100.00;101518.16;4929344;29;20062;-41
2023/10/10 08:14:12;;;;;;;25.02;11.95;;;;;;;22.15;100.00;101516.22;4932153;29;20051;-40
2023/10/10 08:16:43;;;;;;;19.85;9.50;;;;;;;22.22;100.00;101522.81;4924950;29;20426;-39
2023/10/10 08:19:15;;;;;;;19.13;7.97;;;;;;;22.24;100.00;101521.06;4932317;29;20044;-40
2023/10/10 08:21:50;;;;;;;13.05;5.45;;;;;;;22.30;100.00;101519.19;4933869;29;20501;-41
2023/10/10 08:24:17;;;;;;;12.65;5.50;;;;;;;22.33;100.00;101512.56;4923430;29;20138;-40
2023/10/10 08:26:44;;;;;;;14.98;5.10;;;;;;;22.36;100.00;101516.47;4933167;29;20067;-42
2023/10/10 08:29:12;;;;;;;13.85;5.70;;;;;;;22.38;100.00;101506.25;4934033;29;20051;-39
2023/10/10 08:31:42;;;;;;;13.40;4.63;;;;;;;22.40;100.00;101505.75;4932834;29;20056;-39
2023/10/10 08:34:09;;;;;;;15.48;5.45;;;;;;;22.45;100.00;101507.94;4932266;29;20056;-40
2023/10/10 08:36:37;;;;;;;19.55;6.18;;;;;;;22.36;100.00;101503.09;4934252;29;20090;-40
2023/10/10 08:41:44;;;;;;;23.05;10.40;;;;;;;22.23;100.00;101507.38;4930192;29;20071;-39
2023/10/10 08:44:14;;;;;;;26.70;11.18;;;;;;;22.17;100.00;101505.22;4931996;29;20070;-39
2023/10/10 08:46:48;;;;;;;31.73;11.77;;;;;;;22.14;100.00;101503.34;4928745;29;20110;-42
2023/10/10 08:49:16;;;;;;;24.88;11.50;;;;;;;22.13;100.00;101509.47;4927658;29;20052;-40
2023/10/10 08:51:44;;;;;;;24.67;12.68;;;;;;;22.13;100.00;101503.06;4932275;29;20062;-38
2023/10/10 08:54:15;;;;;;;27.40;12.88;;;;;;;22.13;100.00;101503.81;4927129;29;20083;-40
2023/10/10 08:56:59;;;;;;;26.38;11.00;;;;;;;22.17;100.00;101505.22;4931133;29;20063;-41
2023/10/10 08:59:31;;;;;;;22.30;10.75;;;;;;;22.23;100.00;101507.38;4931357;29;20062;-40
2023/10/10 09:02:17;;;;;;;24.05;10.30;;;;;;;22.29;100.00;101502.63;4917583;29;20075;-40
2023/10/10 09:04:43;;;;;;;;;;;;;;;22.32;100.00;101505.34;4932146;29;20085;-41
2023/10/10 09:07:30;;;;;;;22.35;8.35;;;;;;;22.33;100.00;101512.56;4933216;29;19922;-39
2023/10/10 09:10:13;;;;;;;20.40;7.85;;;;;;;22.36;100.00;101508.78;4933146;29;20725;-38
2023/10/10 09:12:55;;;;;;;23.98;7.50;;;;;;;22.40;100.00;101505.75;4933309;29;20075;-40
2023/10/10 09:15:27;;;;;;;21.40;8.43;;;;;;;22.34;100.00;101502.78;4931252;29;20148;-40
2023/10/10 09:18:17;;;;;;;22.17;8.20;;;;;;;22.40;100.00;101512.22;4900475;29;20059;-41
2023/10/10 09:20:47;;;;;;;18.52;7.07;;;;;;;22.39;100.00;101504.97;4932106;29;20055;-39
2023/10/10 09:23:25;;;;;;;17.90;6.88;;;;;;;22.44;100.00;101503.53;4927359;29;20051;-42
2023/10/10 09:26:12;;;;;;;16.17;6.20;;;;;;;22.51;100.00;101506.78;4932496;29;20055;-41
2023/10/10 09:28:55;;;;;;;21.10;5.85;;;;;;;22.53;100.00;101509.13;4927898;29;20080;-42
2023/10/10 09:31:31;;;;;;;18.75;6.47;;;;;;;22.41;100.00;101508.09;4929732;29;20060;-40
2023/10/10 09:34:03;;;;;;;20.63;6.38;;;;;;;22.51;100.00;101503.19;4928504;29;20062;-40
2023/10/10 09:36:37;;;;;;;20.08;6.30;;;;;;;22.55;100.00;101495.28;4931450;29;21177;-47
2023/10/10 09:39:35;;;;;;;20.80;6.40;;;;;;;22.51;100.00;101503.94;4931932;29;20055;-46
2023/10/10 09:42:21;;;;;;;24.13;7.00;;;;;;;22.47;100.00;101494.84;4928989;29;20062;-46
2023/10/10 09:44:53;;;;;;;19.13;6.78;;;;;;;22.49;100.00;101495.16;4913031;29;20704;-47
2023/10/10 09:47:43;;;;;;;26.52;6.07;;;;;;;22.48;100.00;101501.31;4925688;29;20108;-49
2023/10/10 09:52:53;;;;;;;17.38;4.63;;;;;;;22.61;100.00;101507.53;4928008;29;20047;-48
2023/10/10 10:00:46;;;;;;;25.88;5.82;;;;;;;22.60;100.00;101503.09;4926437;29;20051;-47
2023/10/10 10:09:17;;;;;;;16.83;5.35;;;;;;;22.53;100.00;101507.09;4926249;29;20075;-48
2023/10/10 10:11:52;;;;;;;16.35;4.75;;;;;;;22.58;100.00;101505.66;4925757;29;20055;-48
2023/10/10 10:14:35;;;;;;;17.90;5.35;;;;;;;22.55;100.00;101496.06;4928789;29;20138;-48
2023/10/10 10:17:18;;;;;;;13.90;4.80;;;;;;;22.59;100.00;101495.88;4929586;29;20086;-47
2023/10/10 10:19:45;;;;;;;19.45;4.53;;;;;;;22.53;100.00;101500.63;4930487;29;20479;-46
2023/10/10 10:22:18;;;;;;;20.85;5.22;;;;;;;22.57;100.00;101487.84;4929323;29;20595;-47
2023/10/10 10:24:48;;;;;;;16.08;4.75;;;;;;;22.58;100.00;101495.09;4929972;29;20055;-46
2023/10/10 10:27:39;;;;;;;15.70;4.90;;;;;;;22.62;100.00;101490.03;4924336;29;20481;-49
2023/10/10 10:30:50;;;;;;;19.13;5.30;;;;;;;22.61;100.00;101494.13;4927432;29;20075;-46
2023/10/10 10:32:58;;;;;;;23.88;5.22;;;;;;;22.69;100.00;101488.88;4920417;29;20103;-47
2023/10/10 10:35:57;;;;;;;19.38;4.55;;;;;;;22.70;100.00;101490.44;4906101;29;20082;-47
2023/10/10 10:38:24;;;;;;;16.63;4.95;;;;;;;22.66;100.00;101484.19;4929348;29;20047;-47
2023/10/10 10:41:05;;;;;;;18.67;6.65;;;;;;;22.61;100.00;101482.78;4927013;29;20051;-47
2023/10/10 10:43:41;;;;;;;19.63;5.18;;;;;;;22.73;100.00;101483.81;4924881;29;20059;-47
2023/10/10 10:46:14;;;;;;;16.02;4.63;;;;;;;22.72;100.00;101490.75;4930633;29;20051;-47
2023/10/10 10:48:47;;;;;;;20.00;5.15;;;;;;;22.69;100.00;101488.88;4922672;29;20586;-47
2023/10/10 10:54:00;;;;;;;17.90;4.75;;;;;;;22.73;100.00;101478.94;4927102;29;20047;-46
2023/10/10 10:59:13;;;;;;;20.10;5.22;;;;;;;22.68;100.00;101470.31;4930604;29;20047;-48
2023/10/10 11:01:51;;;;;;;19.98;4.95;;;;;;;22.76;100.00;101469.47;4914450;29;20047;-46
2023/10/10 11:04:25;;;;;;;17.05;4.65;;;;;;;22.75;100.00;101461.44;4923894;29;20181;-47
2023/10/10 11:07:00;;;;;;;19.20;4.68;;;;;;;22.79;100.00;101477.00;4919109;29;20055;-47
2023/10/10 11:09:31;;;;;;;19.08;8.02;;;;;;;22.79;100.00;101448.66;4926607;29;20058;-50
2023/10/10 11:12:03;;;;;;;26.75;10.63;;;;;;;22.82;100.00;101452.56;4920656;29;20059;-47
2023/10/10 11:14:36;;;;;;;86.10;31.88;;;;;;;22.87;100.00;101457.56;4928260;29;20056;-46
2023/10/10 11:17:03;;;;;;;151.07;64.25;;;;;;;22.88;100.00;101447.81;4929758;29;20130;-46
2023/10/10 11:22:05;;;;;;;401.50;185.85;;;;;;;22.92;100.00;101434.97;4923218;29;20067;-48
2023/10/10 11:24:34;;;;;;;483.88;233.85;;;;;;;22.94;100.00;101432.44;4920577;29;20499;-48
2023/10/10 11:29:32;;;;;;;528.45;271.88;;;;;;;22.90;100.00;101426.19;4925836;29;20122;-48
2023/10/10 11:32:46;;;;;;;539.45;278.40;;;;;;;22.91;100.00;101418.47;4923611;29;20052;-47
2023/10/10 11:34:49;;;;;;;520.80;266.63;;;;;;;22.93;100.00;101419.56;4911316;29;20060;-46
2023/10/10 11:37:20;;;;;;;519.53;264.70;;;;;;;22.90;100.00;101425.41;4928570;29;20051;-46
2023/10/10 11:40:01;;;;;;;513.67;265.47;;;;;;;22.90;100.00;101419.72;4927457;29;20047;-47
2023/10/10 11:42:35;;;;;;;491.33;259.98;;;;;;;22.87;100.00;101413.00;4927172;29;20059;-47
2023/10/10 11:45:06;;;;;;;486.42;252.75;;;;;;;22.89;100.00;101426.69;4926010;29;20102;-47
2023/10/10 11:47:42;;;;;;;485.25;246.35;;;;;;;22.91;100.00;101409.97;4926065;29;20506;-48
2023/10/10 11:50:15;;;;;;;448.98;236.93;;;;;;;22.90;100.00;101408.38;4918630;29;20099;-47
2023/10/10 11:52:56;;;;;;;455.92;230.90;;;;;;;22.91;100.00;101409.97;4924168;29;20601;-47
2023/10/10 11:55:23;;;;;;;425.33;223.35;;;;;;;22.95;100.00;101402.81;4927160;29;20067;-47
2023/10/10 11:57:51;;;;;;;390.27;205.13;;;;;;;22.87;100.00;101401.66;4921696;29;20130;-47
2023/10/10 12:00:22;;;;;;;370.05;195.70;;;;;;;22.88;100.00;101406.03;4926935;29;20058;-49
2023/10/10 12:02:55;;;;;;;367.05;186.52;;;;;;;22.85;100.00;101394.91;4925993;29;20075;-48
2023/10/10 12:05:37;;;;;;;354.45;185.65;;;;;;;22.86;100.00;101390.78;4929788;29;20067;-51
2023/10/10 12:08:07;;;;;;;334.15;170.20;;;;;;;22.93;100.00;101385.53;4929135;29;20051;-47
2023/10/10 12:10:52;;;;;;;332.67;164.73;;;;;;;22.87;100.00;101390.31;4924449;29;20107;-47
2023/10/10 12:15:58;;;;;;;283.48;142.13;;;;;;;22.86;100.00;101390.78;4917413;29;20110;-47
2023/10/10 12:18:31;;;;;;;289.75;139.00;;;;;;;22.88;100.00;101396.78;4925667;29;20048;-46
2023/10/10 12:21:01;;;;;;;277.75;138.30;;;;;;;22.87;100.00;101393.13;4912422;29;20086;-49
2023/10/10 12:23:31;;;;;;;280.00;136.63;;;;;;;22.87;100.00;101392.34;4913504;29;20566;-49
2023/10/10 12:26:03;;;;;;;238.90;121.53;;;;;;;22.77;100.00;101385.19;4921089;29;20059;-47
2023/10/10 12:28:29;;;;;;;240.90;117.22;;;;;;;22.79;100.00;101379.84;4927207;29;20047;-47
2023/10/10 12:30:56;;;;;;;226.80;109.93;;;;;;;22.71;100.00;101379.41;4924511;29;20048;-46
2023/10/10 12:33:24;;;;;;;211.95;106.68;;;;;;;22.77;100.00;101385.19;4929981;29;20056;-47
2023/10/10 12:35:51;;;;;;;206.38;100.60;;;;;;;22.85;100.00;101386.41;4922588;29;20059;-48
2023/10/10 12:38:21;;;;;;;194.35;100.40;;;;;;;22.85;100.00;101377.91;4921183;29;20048;-48
2023/10/10 12:40:53;;;;;;;193.13;93.70;;;;;;;22.87;100.00;101381.81;4926182;29;20106;-47
2023/10/10 12:43:24;;;;;;;176.63;89.78;;;;;;;22.88;100.00;101379.75;4928989;29;20101;-48
2023/10/10 12:45:51;;;;;;;180.13;91.00;;;;;;;22.85;100.00;101373.00;4929031;29;20052;-47
2023/10/10 12:48:21;;;;;;;178.57;92.25;;;;;;;22.84;100.00;101364.97;4928043;29;20059;-46
2023/10/10 12:50:50;;;;;;;172.27;87.20;;;;;;;22.88;100.00;101376.91;4924913;29;20324;-49
2023/10/10 12:53:21;;;;;;;165.80;84.28;;;;;;;22.86;100.00;101377.41;4931422;29;20542;-51
2023/10/10 12:56:17;;;;;;;173.00;88.28;;;;;;;22.88;100.00;101372.00;4927108;29;20059;-49
2023/10/10 12:58:51;;;;;;;158.63;82.75;;;;;;;22.88;100.00;101359.91;4927553;29;20075;-47
2023/10/10 13:01:25;;;;;;;154.05;79.68;;;;;;;22.87;100.00;101378.16;4930558;29;20628;-49
2023/10/10 13:03:52;;;;;;;148.07;76.70;;;;;;;22.94;100.00;101378.59;4932376;29;20051;-49
2023/10/10 13:06:22;;;;;;;157.65;78.57;;;;;;;22.91;100.00;101364.63;4927826;29;20056;-46
2023/10/10 13:11:20;;;;;;;136.55;71.95;;;;;;;23.04;100.00;101365.91;4932217;29;20075;-48
2023/10/10 13:13:56;;;;;;;139.93;71.13;;;;;;;23.05;100.00;101361.03;4929102;29;20052;-46
2023/10/10 13:18:56;;;;;;;130.75;62.97;;;;;;;23.04;100.00;101360.22;4932249;29;20048;-48
2023/10/10 13:21:23;;;;;;;117.15;60.22;;;;;;;23.04;100.00;101350.94;4928515;29;20060;-47
2023/10/10 13:23:51;;;;;;;107.80;55.45;;;;;;;23.06;100.00;101354.06;4925045;29;20044;-48
2023/10/10 13:26:22;;;;;;;98.35;50.90;;;;;;;23.08;100.00;101360.06;4934672;29;20134;-47
2023/10/10 13:28:49;;;;;;;97.55;50.72;;;;;;;23.06;100.00;101354.88;4921751;29;20052;-47
2023/10/10 13:31:18;;;;;;;86.82;45.35;;;;;;;23.05;100.00;101346.84;4927031;29;20078;-46
2023/10/10 13:33:45;;;;;;;89.15;44.00;;;;;;;23.08;100.00;101351.53;4927985;29;20052;-50
2023/10/10 13:36:15;;;;;;;77.25;41.00;;;;;;;23.09;100.00;101350.28;4925647;29;20087;-49
2023/10/10 13:38:49;;;;;;;80.75;37.17;;;;;;;23.11;100.00;101350.53;4926086;29;20062;-47
2023/10/10 13:41:20;;;;;;;66.20;33.45;;;;;;;23.10;100.00;101344.09;4926803;29;20051;-48
2023/10/10 13:43:50;;;;;;;67.95;35.00;;;;;;;23.11;100.00;101337.16;4925465;29;20067;-46
2023/10/10 13:46:20;;;;;;;61.75;31.63;;;;;;;23.12;100.00;101346.44;4917558;29;20103;-47
2023/10/10 13:48:47;;;;;;;62.47;29.73;;;;;;;23.13;100.00;101339.50;4912544;29;20055;-47
2023/10/10 13:51:15;;;;;;;54.63;26.85;;;;;;;23.12;100.00;101341.53;4930580;29;20107;-47
2023/10/10 13:53:44;;;;;;;53.75;25.83;;;;;;;23.14;100.00;101344.69;4931594;29;20056;-47
2023/10/10 13:56:16;;;;;;;50.28;25.67;;;;;;;23.11;100.00;101337.16;4927079;29;20054;-49
2023/10/10 13:58:46;;;;;;;47.72;23.98;;;;;;;23.10;100.00;101338.44;4927611;29;20154;-49
2023/10/10 14:01:18;;;;;;;44.63;22.70;;;;;;;23.13;100.00;101336.66;4931439;29;20051;-47
2023/10/10 14:03:46;;;;;;;45.92;24.15;;;;;;;23.13;100.00;101348.00;4927626;29;20048;-47
2023/10/10 14:06:16;;;;;;;40.70;19.73;;;;;;;23.15;100.00;101334.13;4924642;29;20044;-50
2023/10/10 14:08:47;;;;;;;42.17;19.85;;;;;;;23.15;100.00;101331.28;4925794;29;20051;-50
2023/10/10 14:11:20;;;;;;;39.40;18.58;;;;;;;23.15;100.00;101334.91;4928422;29;20064;-48
2023/10/10 14:13:54;;;;;;;37.10;17.45;;;;;;;23.15;100.00;101334.13;4925864;29;20051;-46
2023/10/10 14:16:23;;;;;;;34.72;16.67;;;;;;;23.17;100.00;101328.72;4931919;29;20400;-49
2023/10/10 14:18:50;;;;;;;36.30;16.50;;;;;;;23.16;100.00;101324.34;4932355;29;20074;-49
2023/10/10 14:21:28;;;;;;;34.20;15.95;;;;;;;23.17;100.00;101323.84;4935840;29;20142;-47
2023/10/10 14:24:07;;;;;;;34.40;15.25;;;;;;;23.18;100.00;101328.25;4929515;29;20061;-47
2023/10/10 14:26:35;;;;;;;30.70;12.52;;;;;;;23.19;100.00;101320.53;4925548;29;20111;-45